Time;durP1;ratioP1;P1;durP2;ratioP2;P2;SDS_P1;SDS_P2;PMS_P1;PMS_P2;Temp;Humidity;BMP_temperature;BMP_pressure;BME280_temperature;BME280_humidity;BME280_pressure;Samples;Min_cycle;Max_cycle;Signal;HPM_P1;HPM_P2
2021/05/16 00:02:21;;;;;;;1.08;0.30;;;;;;;15.31;64.35;99452.75;4881494;28;108689;-61
2021/05/16 00:04:47;;;;;;;1.10;0.30;;;;;;;15.30;64.62;99451.19;4880814;28;118340;-68
2021/05/16 00:07:13;;;;;;;3.50;0.30;;;;;;;15.29;64.67;99452.31;4875052;28;98068;-67
2021/05/16 00:09:40;;;;;;;0.55;0.20;;;;;;;15.25;64.35;99443.22;4868228;28;127783;-67
2021/05/16 00:12:07;;;;;;;1.38;0.28;;;;;;;15.25;64.63;99442.38;4882929;28;98540;-67
2021/05/16 00:14:34;;;;;;;0.57;0.20;;;;;;;15.25;64.51;99445.09;4882859;28;107380;-67
2021/05/16 00:17:00;;;;;;;0.50;0.20;;;;;;;15.22;64.52;99446.56;4865004;28;98216;-60
2021/05/16 00:19:26;;;;;;;0.70;0.20;;;;;;;15.20;64.39;99454.22;4883026;28;107112;-67
2021/05/16 00:21:52;;;;;;;1.00;0.20;;;;;;;15.19;64.91;99456.13;4883437;28;99796;-67
2021/05/16 00:24:18;;;;;;;0.65;0.30;;;;;;;15.16;64.86;99447.84;4883480;28;98302;-67
2021/05/16 00:26:44;;;;;;;0.60;0.20;;;;;;;15.15;64.92;99444.34;4882074;28;117886;-67
2021/05/16 00:29:10;;;;;;;0.73;0.22;;;;;;;15.14;64.71;99455.53;4881926;28;123542;-68
2021/05/16 00:31:36;;;;;;;1.45;0.30;;;;;;;15.12;65.13;99449.59;4881798;28;128323;-67
2021/05/16 00:34:03;;;;;;;0.77;0.30;;;;;;;15.10;64.68;99446.44;4883625;28;97687;-60
2021/05/16 00:36:29;;;;;;;1.17;0.30;;;;;;;15.10;64.91;99460.00;4865350;28;103568;-67
2021/05/16 00:38:58;;;;;;;0.68;0.20;;;;;;;15.08;64.92;99449.44;4882179;28;110110;-61
2021/05/16 00:41:24;;;;;;;0.50;0.20;;;;;;;15.08;64.93;99452.16;4883232;28;98083;-67
2021/05/16 00:43:51;;;;;;;0.55;0.30;;;;;;;15.05;65.26;99452.00;4845717;28;99174;-67
2021/05/16 00:46:17;;;;;;;0.70;0.20;;;;;;;15.00;65.19;99439.41;4845211;28;97903;-67
2021/05/16 00:48:43;;;;;;;0.70;0.30;;;;;;;15.01;64.88;99451.06;4863175;28;113513;-67
2021/05/16 00:51:12;;;;;;;0.85;0.30;;;;;;;14.95;65.59;99451.22;4867594;28;127975;-67
2021/05/16 00:53:38;;;;;;;0.57;0.20;;;;;;;14.93;65.56;99441.81;4865423;28;99387;-67
2021/05/16 00:56:05;;;;;;;0.88;0.30;;;;;;;14.92;65.41;99438.28;4883294;28;99508;-60
2021/05/16 00:58:31;;;;;;;0.90;0.30;;;;;;;14.89;65.50;99440.84;4885897;28;110114;-60
2021/05/16 01:00:57;;;;;;;0.90;0.30;;;;;;;14.88;65.42;99439.25;4895289;28;99436;-67
2021/05/16 01:03:23;;;;;;;0.98;0.30;;;;;;;14.84;65.44;99441.03;4901949;28;127447;-60
2021/05/16 01:05:49;;;;;;;0.90;0.20;;;;;;;14.84;65.47;99435.59;4902853;28;98073;-60
2021/05/16 01:08:16;;;;;;;0.90;0.30;;;;;;;14.80;65.36;99435.44;4864830;28;98672;-60
2021/05/16 01:10:43;;;;;;;0.50;0.20;;;;;;;14.77;65.61;99436.06;4895847;28;114786;-60
2021/05/16 01:13:11;;;;;;;1.80;0.30;;;;;;;14.72;65.67;99445.16;4901326;28;98856;-60
2021/05/16 01:15:40;;;;;;;0.75;0.30;;;;;;;14.70;65.67;99442.00;4901804;28;97950;-60
2021/05/16 01:18:06;;;;;;;1.02;0.30;;;;;;;14.69;65.37;99437.66;4901594;28;112720;-60
2021/05/16 01:20:36;;;;;;;1.17;0.30;;;;;;;14.65;65.62;99439.41;4901169;28;99455;-60
2021/05/16 01:23:18;;;;;;;0.57;0.28;;;;;;;14.60;65.55;99441.50;4901776;28;98146;-60
2021/05/16 01:25:46;;;;;;;0.47;0.20;;;;;;;14.59;65.56;99442.63;4901803;28;97998;-67
2021/05/16 01:28:13;;;;;;;0.60;0.20;;;;;;;14.58;65.91;99449.97;4902210;28;98403;-59
2021/05/16 01:30:40;;;;;;;0.70;0.30;;;;;;;14.55;65.80;99445.16;4883784;28;104783;-67
2021/05/16 01:33:07;;;;;;;0.93;0.20;;;;;;;14.55;65.57;99444.38;4902361;28;98039;-60
2021/05/16 01:35:33;;;;;;;0.77;0.25;;;;;;;14.52;66.05;99453.13;4902809;28;97855;-67
2021/05/16 01:37:59;;;;;;;0.70;0.20;;;;;;;14.51;66.08;99452.34;4902538;28;98432;-68
2021/05/16 01:40:26;;;;;;;0.85;0.20;;;;;;;14.46;66.01;99452.44;4900836;28;98457;-67
2021/05/16 01:42:54;;;;;;;1.15;0.30;;;;;;;14.45;65.99;99448.94;4900655;28;98103;-60
2021/05/16 01:45:25;;;;;;;0.80;0.30;;;;;;;14.45;65.82;99464.41;4903008;28;98213;-67
2021/05/16 01:47:55;;;;;;;0.90;0.30;;;;;;;14.40;65.74;99478.94;4901993;28;97958;-67
2021/05/16 01:50:24;;;;;;;0.60;0.28;;;;;;;14.40;65.65;99488.97;4884233;28;105898;-60
2021/05/16 01:52:50;;;;;;;0.70;0.20;;;;;;;14.38;65.61;99478.47;4882442;28;114356;-66
2021/05/16 01:55:17;;;;;;;0.60;0.20;;;;;;;14.36;65.99;99477.16;4900562;28;116555;-67
2021/05/16 01:57:44;;;;;;;0.70;0.20;;;;;;;14.36;65.93;99477.16;4882005;28;117668;-60
2021/05/16 02:00:15;;;;;;;0.60;0.20;;;;;;;14.33;65.92;99475.88;4884367;28;98760;-67
2021/05/16 02:02:41;;;;;;;0.85;0.30;;;;;;;14.33;65.72;99475.09;4904358;28;98675;-59
2021/05/16 02:05:08;;;;;;;0.82;0.25;;;;;;;14.30;66.00;99481.13;4869527;28;116537;-67
2021/05/16 02:07:34;;;;;;;0.80;0.20;;;;;;;14.29;66.03;99482.25;4869288;28;114956;-67
2021/05/16 02:10:00;;;;;;;0.80;0.28;;;;;;;14.27;66.01;99481.78;4904350;28;126831;-67
2021/05/16 02:12:27;;;;;;;0.63;0.20;;;;;;;14.25;65.95;99482.09;4870118;28;126731;-60
2021/05/16 02:14:53;;;;;;;0.50;0.25;;;;;;;14.29;65.61;99487.66;4905102;28;97772;-67
2021/05/16 02:17:19;;;;;;;0.50;0.20;;;;;;;14.32;65.49;99487.84;4903100;28;128552;-60
2021/05/16 02:19:45;;;;;;;0.50;0.20;;;;;;;14.35;65.45;99489.94;4904422;28;98472;-66
2021/05/16 02:22:16;;;;;;;1.55;0.30;;;;;;;14.38;64.96;99488.47;4884845;28;127034;-60
2021/05/16 02:24:45;;;;;;;0.77;0.20;;;;;;;14.39;65.06;99488.19;4872802;28;97845;-66
2021/05/16 02:27:11;;;;;;;0.70;0.30;;;;;;;14.41;64.75;99490.56;4903743;28;103858;-67
2021/05/16 02:29:37;;;;;;;0.80;0.30;;;;;;;14.39;65.18;99487.38;4904710;28;98541;-59
2021/05/16 02:32:06;;;;;;;0.90;0.20;;;;;;;14.41;64.96;99485.16;4902755;28;128656;-66
2021/05/16 02:34:33;;;;;;;0.70;0.20;;;;;;;14.41;64.83;99488.66;4904484;28;97913;-60
2021/05/16 02:36:59;;;;;;;0.70;0.20;;;;;;;14.40;64.68;99486.25;4904574;28;98343;-59
2021/05/16 02:39:25;;;;;;;0.65;0.30;;;;;;;14.43;64.94;99488.34;4903184;28;110947;-67
2021/05/16 02:41:51;;;;;;;0.90;0.20;;;;;;;14.40;64.98;99487.06;4885034;28;127681;-66
2021/05/16 02:44:18;;;;;;;0.90;0.20;;;;;;;14.41;64.77;99487.84;4904273;28;97944;-60
2021/05/16 02:46:44;;;;;;;1.67;0.20;;;;;;;14.40;64.76;99478.94;4904069;28;98272;-60
2021/05/16 02:49:11;;;;;;;0.50;0.20;;;;;;;14.39;64.93;99485.47;4903870;28;98972;-66
2021/05/16 02:51:37;;;;;;;0.77;0.20;;;;;;;14.38;64.68;99483.06;4902792;28;118914;-59
2021/05/16 02:54:03;;;;;;;0.50;0.20;;;;;;;14.39;64.67;99490.09;4870818;28;98167;-60
2021/05/16 02:56:29;;;;;;;0.98;0.20;;;;;;;14.35;64.96;99489.94;4883073;28;98272;-60
2021/05/16 02:58:55;;;;;;;0.50;0.20;;;;;;;14.35;64.84;99483.72;4870684;28;126600;-66
2021/05/16 03:01:22;;;;;;;1.20;0.20;;;;;;;14.34;65.08;99484.81;4882634;28;126236;-67
2021/05/16 03:03:48;;;;;;;0.75;0.20;;;;;;;14.32;64.80;99487.03;4870050;28;98128;-59
2021/05/16 03:06:14;;;;;;;0.63;0.20;;;;;;;14.32;64.62;99482.41;4903209;28;118380;-67
2021/05/16 03:08:40;;;;;;;0.50;0.20;;;;;;;14.32;64.98;99481.63;4903775;28;110128;-67
2021/05/16 03:11:06;;;;;;;0.45;0.17;;;;;;;14.32;64.85;99489.75;4903534;28;98010;-60
2021/05/16 03:13:32;;;;;;;1.08;0.20;;;;;;;14.30;65.12;99489.25;4904453;28;98102;-60
2021/05/16 03:15:58;;;;;;;0.77;0.20;;;;;;;14.31;65.08;99496.31;4902375;28;124001;-60
2021/05/16 03:18:24;;;;;;;0.90;0.20;;;;;;;14.32;64.69;99495.97;4903762;28;107343;-67
2021/05/16 03:20:50;;;;;;;0.63;0.20;;;;;;;14.29;64.94;99496.59;4884439;28;108014;-60
2021/05/16 03:23:16;;;;;;;0.50;0.20;;;;;;;14.29;64.87;99495.81;4903698;28;118721;-60
2021/05/16 03:25:43;;;;;;;0.70;0.20;;;;;;;14.30;65.18;99492.75;4903690;28;98162;-67
2021/05/16 03:28:09;;;;;;;1.23;0.20;;;;;;;14.28;64.99;99497.72;4901585;28;98432;-60
2021/05/16 03:30:35;;;;;;;0.50;0.20;;;;;;;14.28;64.90;99500.44;4902259;28;127443;-67
2021/05/16 03:33:01;;;;;;;0.75;0.20;;;;;;;14.30;65.20;99498.19;4903711;28;97955;-67
2021/05/16 03:35:27;;;;;;;0.70;0.20;;;;;;;14.30;65.25;99498.19;4885272;28;97885;-67
2021/05/16 03:37:53;;;;;;;0.40;0.15;;;;;;;14.30;65.17;99498.19;4902665;28;122241;-60
2021/05/16 03:40:19;;;;;;;0.60;0.20;;;;;;;14.30;65.47;99500.09;4902046;28;126024;-67
2021/05/16 03:42:45;;;;;;;1.00;0.20;;;;;;;14.33;65.16;99504.91;4885997;28;97979;-60
2021/05/16 03:45:12;;;;;;;0.65;0.20;;;;;;;14.32;65.07;99495.97;4884787;28;126995;-68
2021/05/16 03:47:39;;;;;;;0.68;0.20;;;;;;;14.34;64.98;99499.16;4885274;28;98345;-61
2021/05/16 03:50:07;;;;;;;0.52;0.10;;;;;;;14.33;65.20;99502.19;4903146;28;97723;-61
2021/05/16 03:52:33;;;;;;;0.65;0.20;;;;;;;14.36;65.61;99496.94;4901877;28;97966;-67
2021/05/16 03:54:59;;;;;;;0.68;0.17;;;;;;;14.38;65.33;99493.91;4902670;28;98890;-67
2021/05/16 03:57:25;;;;;;;0.32;0.10;;;;;;;14.38;65.48;99493.91;4902700;28;112256;-67
2021/05/16 03:59:51;;;;;;;0.50;0.15;;;;;;;14.41;65.66;99504.13;4885604;28;99357;-60
2021/05/16 04:02:18;;;;;;;0.47;0.10;;;;;;;14.42;65.54;99498.41;4903365;28;97967;-60
2021/05/16 04:04:44;;;;;;;0.50;0.20;;;;;;;14.46;65.42;99496.66;4884667;28;128578;-60
2021/05/16 04:07:10;;;;;;;0.38;0.10;;;;;;;14.50;65.61;99494.09;4880520;28;127768;-67
2021/05/16 04:09:36;;;;;;;0.50;0.20;;;;;;;14.51;65.26;99501.16;4882702;28;116425;-60
2021/05/16 04:12:02;;;;;;;0.55;0.20;;;;;;;14.57;65.63;99508.00;4864492;28;119110;-61
2021/05/16 04:14:28;;;;;;;0.73;0.20;;;;;;;14.58;65.42;99508.81;4894529;28;99183;-67
2021/05/16 04:16:55;;;;;;;0.30;0.10;;;;;;;14.60;65.44;99503.88;4903447;28;98971;-60
2021/05/16 04:19:21;;;;;;;0.57;0.20;;;;;;;14.58;65.72;99501.50;4868337;28;98631;-67
2021/05/16 04:21:47;;;;;;;0.57;0.20;;;;;;;14.58;65.69;99503.38;4902691;28;99999;-67
2021/05/16 04:24:13;;;;;;;0.35;0.10;;;;;;;14.60;65.77;99504.66;4901175;28;126562;-60
2021/05/16 04:26:43;;;;;;;1.20;0.20;;;;;;;14.64;65.98;99510.25;4902275;28;99046;-60
2021/05/16 04:29:09;;;;;;;0.60;0.13;;;;;;;14.65;66.07;99506.41;4902185;28;126504;-67
2021/05/16 04:31:35;;;;;;;0.80;0.20;;;;;;;14.66;65.69;99506.13;4884325;28;103760;-60
2021/05/16 04:34:01;;;;;;;0.60;0.10;;;;;;;14.69;65.70;99516.31;4902809;28;98839;-67
2021/05/16 04:36:27;;;;;;;0.30;0.10;;;;;;;14.71;65.95;99516.03;4901660;28;99202;-61
2021/05/16 04:38:53;;;;;;;0.40;0.20;;;;;;;14.70;66.08;99514.44;4901465;28;121528;-61
2021/05/16 04:41:20;;;;;;;0.40;0.20;;;;;;;14.75;65.91;99516.97;4902188;28;109828;-67
2021/05/16 04:43:46;;;;;;;0.82;0.20;;;;;;;14.79;66.10;99515.22;4902612;28;98064;-60
2021/05/16 04:46:12;;;;;;;0.60;0.10;;;;;;;14.78;65.73;99512.84;4884367;28;98497;-60
2021/05/16 04:48:38;;;;;;;0.60;0.10;;;;;;;14.83;65.67;99515.38;4882550;28;128212;-61
2021/05/16 04:51:05;;;;;;;0.82;0.20;;;;;;;14.81;65.82;99512.97;4884201;28;112346;-67
2021/05/16 04:53:33;;;;;;;0.43;0.10;;;;;;;14.78;65.95;99516.34;4902231;28;98590;-60
2021/05/16 04:56:00;;;;;;;0.30;0.10;;;;;;;14.79;66.03;99523.38;4902943;28;99146;-60
2021/05/16 04:58:26;;;;;;;0.95;0.20;;;;;;;14.84;66.11;99522.41;4901784;28;98545;-61
2021/05/16 05:00:52;;;;;;;0.68;0.20;;;;;;;14.85;65.91;99522.06;4884640;28;98186;-62
2021/05/16 05:03:21;;;;;;;0.68;0.10;;;;;;;14.89;66.03;99522.25;4883652;28;109252;-60
2021/05/16 05:05:47;;;;;;;0.70;0.20;;;;;;;14.95;65.89;99516.34;4881426;28;98256;-61
2021/05/16 05:08:13;;;;;;;0.70;0.15;;;;;;;15.08;65.85;99519.22;4880459;28;98027;-61
2021/05/16 05:10:39;;;;;;;0.52;0.10;;;;;;;15.23;65.19;99519.53;4871699;28;118647;-61
2021/05/16 05:13:05;;;;;;;0.57;0.20;;;;;;;15.37;64.79;99522.09;4882877;28;98359;-60
2021/05/16 05:15:31;;;;;;;0.30;0.10;;;;;;;15.50;64.74;99517.59;4849651;28;127652;-68
2021/05/16 05:17:57;;;;;;;1.08;0.13;;;;;;;15.62;64.53;99522.34;4882111;28;127677;-61
2021/05/16 05:20:23;;;;;;;0.80;0.10;;;;;;;15.70;64.24;99522.34;4882476;28;116800;-61
2021/05/16 05:22:51;;;;;;;0.60;0.10;;;;;;;15.80;64.38;99521.22;4864981;28;127927;-67
2021/05/16 05:25:17;;;;;;;0.50;0.20;;;;;;;15.98;63.71;99532.81;4898677;28;113945;-67
2021/05/16 05:27:43;;;;;;;0.95;0.10;;;;;;;16.16;63.54;99528.13;4898713;28;99707;-61
2021/05/16 05:30:10;;;;;;;0.57;0.10;;;;;;;16.35;62.85;99519.56;4881812;28;98049;-62
2021/05/16 05:32:36;;;;;;;0.60;0.10;;;;;;;16.52;62.80;99526.81;4879947;28;107771;-67
2021/05/16 05:35:03;;;;;;;0.30;0.10;;;;;;;16.74;61.83;99523.81;4885450;28;99661;-68
2021/05/16 05:37:29;;;;;;;1.05;0.15;;;;;;;16.86;61.98;99533.97;4900980;28;108907;-67
2021/05/16 05:39:55;;;;;;;1.05;0.10;;;;;;;16.97;61.63;99524.25;4899747;28;118649;-61
2021/05/16 05:42:23;;;;;;;0.63;0.10;;;;;;;17.04;61.83;99524.53;4899427;28;128429;-61
2021/05/16 05:44:49;;;;;;;0.40;0.10;;;;;;;17.14;61.72;99521.41;4868916;28;98505;-68
2021/05/16 05:47:16;;;;;;;1.00;0.17;;;;;;;17.17;61.86;99526.19;4866151;28;127359;-61
2021/05/16 05:49:42;;;;;;;0.40;0.10;;;;;;;17.39;61.52;99524.22;4902638;28;97924;-67
2021/05/16 05:52:08;;;;;;;0.40;0.10;;;;;;;17.60;60.90;99511.34;4900577;28;126572;-67
2021/05/16 05:54:35;;;;;;;0.75;0.10;;;;;;;17.88;60.29;99514.28;4900723;28;127392;-68
2021/05/16 05:57:01;;;;;;;0.60;0.10;;;;;;;18.57;58.25;99515.28;4901329;28;98285;-61
2021/05/16 05:59:27;;;;;;;0.50;0.10;;;;;;;19.57;55.49;99510.00;4901650;28;118610;-61
2021/05/16 06:01:53;;;;;;;0.40;0.10;;;;;;;20.14;54.18;99510.66;4901303;28;112461;-68
2021/05/16 06:04:19;;;;;;;0.47;0.10;;;;;;;20.11;54.79;99508.63;4900620;28;128185;-68
2021/05/16 06:06:45;;;;;;;0.70;0.20;;;;;;;20.71;53.27;99506.53;4894435;28;127739;-69
2021/05/16 06:09:11;;;;;;;0.57;0.20;;;;;;;21.53;52.36;99510.13;4865616;28;98088;-62
2021/05/16 06:11:37;;;;;;;0.90;0.10;;;;;;;22.51;50.27;99512.16;4876967;28;124285;-69
2021/05/16 06:14:04;;;;;;;0.40;0.10;;;;;;;21.97;52.44;99510.53;4900969;28;117175;-61
2021/05/16 06:16:30;;;;;;;0.75;0.10;;;;;;;21.78;53.21;99516.06;4882426;28;98318;-61
2021/05/16 06:18:57;;;;;;;0.60;0.10;;;;;;;21.61;53.43;99516.53;4901974;28;97862;-61
2021/05/16 06:21:24;;;;;;;0.47;0.10;;;;;;;21.33;54.07;99518.38;4883166;28;99044;-68
2021/05/16 06:24:10;;;;;;;0.70;0.10;;;;;;;20.75;55.79;99517.53;4903553;28;128629;-61
2021/05/16 06:26:39;;;;;;;0.40;0.10;;;;;;;19.97;56.44;99530.16;4886503;28;97883;-66
2021/05/16 06:29:06;;;;;;;0.43;0.10;;;;;;;19.42;55.73;99542.75;4883399;28;98217;-68
2021/05/16 06:31:32;;;;;;;1.55;0.10;;;;;;;19.09;57.02;99532.84;4900537;28;98228;-68
2021/05/16 06:33:58;;;;;;;0.30;0.10;;;;;;;19.03;57.71;99539.69;4899768;28;125235;-61
2021/05/16 06:36:24;;;;;;;0.85;0.10;;;;;;;18.93;57.67;99537.44;4901220;28;98491;-61
2021/05/16 06:38:50;;;;;;;0.30;0.10;;;;;;;18.88;58.69;99535.75;4900810;28;97807;-61
2021/05/16 06:41:17;;;;;;;0.52;0.10;;;;;;;18.74;57.96;99540.78;4900529;28;129058;-61
2021/05/16 06:43:43;;;;;;;0.40;0.10;;;;;;;18.75;58.58;99540.44;4900803;28;100108;-68
2021/05/16 06:46:09;;;;;;;0.88;0.10;;;;;;;18.82;58.41;99546.13;4900847;28;97889;-67
2021/05/16 06:48:35;;;;;;;0.52;0.10;;;;;;;18.84;57.68;99543.03;4899815;28;117735;-61
2021/05/16 06:51:03;;;;;;;0.55;0.10;;;;;;;19.20;56.51;99538.59;4900885;28;98347;-61
2021/05/16 06:53:29;;;;;;;0.60;0.10;;;;;;;19.36;56.58;99542.97;4883366;28;98085;-61
2021/05/16 06:55:56;;;;;;;0.73;0.10;;;;;;;19.85;56.04;99537.28;4900899;28;98353;-61
2021/05/16 06:58:22;;;;;;;0.35;0.10;;;;;;;20.15;55.47;99542.31;4901164;28;102201;-68
2021/05/16 07:00:48;;;;;;;0.80;0.10;;;;;;;20.20;56.35;99535.78;4899992;28;127156;-68
2021/05/16 07:03:14;;;;;;;0.60;0.10;;;;;;;20.23;56.37;99535.88;4900343;28;119842;-68
2021/05/16 07:05:40;;;;;;;0.30;0.10;;;;;;;20.22;56.47;99536.25;4900613;28;98149;-68
2021/05/16 07:08:06;;;;;;;0.50;0.10;;;;;;;20.45;56.29;99530.91;4901491;28;98063;-62
2021/05/16 07:10:32;;;;;;;0.82;0.10;;;;;;;20.42;56.46;99535.16;4900239;28;98516;-61
2021/05/16 07:12:59;;;;;;;0.35;0.05;;;;;;;20.31;57.52;99534.09;4900432;28;122864;-62
2021/05/16 07:15:28;;;;;;;0.57;0.10;;;;;;;20.29;57.04;99536.41;4883257;28;97974;-62
2021/05/16 07:17:54;;;;;;;0.85;0.10;;;;;;;20.74;56.04;99535.91;4900175;28;118054;-68
2021/05/16 07:20:20;;;;;;;0.70;0.10;;;;;;;21.29;55.55;99527.66;4882287;28;99020;-68
2021/05/16 07:22:46;;;;;;;0.20;0.10;;;;;;;21.85;54.39;99527.16;4900051;28;97958;-62
2021/05/16 07:25:13;;;;;;;0.60;0.10;;;;;;;22.01;54.24;99527.84;4900463;28;98507;-62
2021/05/16 07:27:39;;;;;;;0.32;0.10;;;;;;;22.23;53.70;99528.19;4903114;28;99458;-69
2021/05/16 07:30:06;;;;;;;0.63;0.10;;;;;;;22.16;53.93;99531.63;4882617;28;98447;-61
2021/05/16 07:32:33;;;;;;;0.47;0.10;;;;;;;21.72;55.09;99528.50;4899513;28;110633;-69
2021/05/16 07:34:59;;;;;;;0.50;0.10;;;;;;;21.78;55.27;99530.56;4900899;28;97948;-69
2021/05/16 07:37:25;;;;;;;0.77;0.10;;;;;;;22.44;53.42;99524.97;4899577;28;114824;-69
2021/05/16 07:39:51;;;;;;;0.13;0.00;;;;;;;22.63;52.97;99521.34;4899385;28;127401;-62
2021/05/16 07:42:17;;;;;;;0.32;0.10;;;;;;;22.56;53.24;99522.06;4900165;28;99379;-69
2021/05/16 07:44:44;;;;;;;0.80;0.10;;;;;;;21.95;54.87;99528.50;4866938;28;99854;-63
2021/05/16 07:47:10;;;;;;;0.40;0.10;;;;;;;21.54;55.23;99523.47;4899343;28;118660;-69
2021/05/16 07:49:36;;;;;;;0.15;0.00;;;;;;;21.75;54.80;99527.75;4898617;28;128047;-64
2021/05/16 07:52:02;;;;;;;0.68;0.10;;;;;;;21.33;55.23;99531.28;4898004;28;103924;-69
2021/05/16 07:54:28;;;;;;;0.20;0.00;;;;;;;21.29;55.67;99531.19;4899913;28;98125;-62
2021/05/16 07:56:57;;;;;;;0.40;0.10;;;;;;;22.77;51.74;99529.78;4881370;28;117392;-62
2021/05/16 07:59:23;;;;;;;1.48;0.03;;;;;;;22.61;52.43;99529.97;4899344;28;98597;-62
2021/05/16 08:01:50;;;;;;;0.30;0.10;;;;;;;21.99;54.11;99538.38;4899726;28;98082;-62
2021/05/16 08:04:16;;;;;;;0.50;0.10;;;;;;;23.25;51.31;99532.78;4900043;28;98025;-62
2021/05/16 08:06:42;;;;;;;0.80;0.10;;;;;;;25.90;45.13;99524.34;4899580;28;118891;-62
2021/05/16 08:09:08;;;;;;;0.40;0.10;;;;;;;28.21;40.75;99519.13;4898260;28;129667;-70
2021/05/16 08:11:34;;;;;;;0.85;0.10;;;;;;;28.31;40.95;99534.09;4881147;28;128038;-70
2021/05/16 08:14:00;;;;;;;0.50;0.10;;;;;;;27.59;43.11;99539.34;4898719;28;123140;-63
2021/05/16 08:16:27;;;;;;;0.52;0.10;;;;;;;26.77;44.62;99529.41;4898154;28;117120;-69
2021/05/16 08:18:53;;;;;;;0.50;0.10;;;;;;;26.37;45.66;99538.91;4881488;28;100842;-63
2021/05/16 08:21:20;;;;;;;0.70;0.15;;;;;;;25.54;47.63;99532.50;4880279;28;123716;-62
2021/05/16 08:23:46;;;;;;;0.88;0.10;;;;;;;25.88;46.48;99532.22;4898560;28;128301;-69
2021/05/16 08:26:12;;;;;;;0.55;0.20;;;;;;;28.76;40.37;99522.97;4898463;28;118462;-63
2021/05/16 08:28:38;;;;;;;0.70;0.10;;;;;;;28.36;40.69;99533.63;4898936;28;127772;-70
2021/05/16 08:31:04;;;;;;;0.82;0.10;;;;;;;26.76;44.31;99544.38;4899146;28;127458;-63
2021/05/16 08:33:30;;;;;;;1.20;0.10;;;;;;;25.66;46.82;99539.63;4899646;28;98111;-63
2021/05/16 08:35:56;;;;;;;0.77;0.20;;;;;;;29.27;38.63;99519.19;4894603;28;98065;-70
2021/05/16 08:38:22;;;;;;;1.17;0.10;;;;;;;28.81;39.51;99523.31;4879778;28;127153;-63
2021/05/16 08:40:48;;;;;;;0.85;0.20;;;;;;;32.77;32.64;99530.09;4900053;28;98576;-64
2021/05/16 08:43:14;;;;;;;0.88;0.10;;;;;;;29.89;37.42;99528.25;4895636;28;98195;-70
2021/05/16 08:45:42;;;;;;;0.70;0.20;;;;;;;29.24;38.99;99528.38;4886239;28;97727;-63
2021/05/16 08:48:08;;;;;;;1.50;0.20;;;;;;;28.23;41.23;99536.13;4899406;28;100048;-63
2021/05/16 08:50:34;;;;;;;0.80;0.10;;;;;;;27.57;42.55;99523.13;4898853;28;109756;-63
2021/05/16 08:53:00;;;;;;;2.05;0.20;;;;;;;26.80;43.75;99523.09;4899218;28;98229;-63
2021/05/16 08:55:27;;;;;;;1.77;0.20;;;;;;;26.87;43.39;99523.03;4898589;28;118148;-70
2021/05/16 08:57:53;;;;;;;1.80;0.20;;;;;;;25.68;45.55;99529.78;4880211;28;98158;-63
2021/05/16 09:00:21;;;;;;;1.08;0.20;;;;;;;24.70;47.96;99540.81;4864549;28;126520;-69
2021/05/16 09:03:09;;;;;;;1.10;0.20;;;;;;;23.85;49.49;99532.66;4878819;28;98277;-62
2021/05/16 09:05:43;;;;;;;1.20;0.20;;;;;;;23.08;50.98;99544.34;4899329;28;97830;-69
2021/05/16 09:08:17;;;;;;;1.95;0.20;;;;;;;22.49;51.52;99541.16;4898789;28;98292;-69
2021/05/16 09:10:45;;;;;;;1.50;0.20;;;;;;;22.12;52.08;99549.16;4881568;28;100162;-68
2021/05/16 09:13:17;;;;;;;2.28;0.20;;;;;;;21.96;53.21;99541.06;4884202;28;98397;-62
2021/05/16 09:16:02;;;;;;;0.90;0.20;;;;;;;24.43;46.91;99534.72;4898936;28;98543;-63
2021/05/16 09:18:51;;;;;;;1.58;0.20;;;;;;;23.93;48.31;99531.56;4882176;28;98978;-69
2021/05/16 09:21:38;;;;;;;1.30;0.20;;;;;;;23.63;49.21;99539.88;4901799;28;118180;-62
2021/05/16 09:24:05;;;;;;;1.23;0.20;;;;;;;27.23;41.18;99535.97;4901864;28;98460;-63
2021/05/16 09:26:32;;;;;;;1.38;0.20;;;;;;;28.30;39.56;99540.81;4902540;28;98017;-63
2021/05/16 09:29:20;;;;;;;1.08;0.20;;;;;;;26.75;42.90;99542.81;4882745;28;107256;-69
2021/05/16 09:31:46;;;;;;;1.95;0.20;;;;;;;26.62;43.59;99539.69;4876585;28;99156;-63
2021/05/16 09:34:12;;;;;;;1.33;0.20;;;;;;;30.24;35.71;99532.44;4900825;28;127560;-70
2021/05/16 09:36:40;;;;;;;1.52;0.20;;;;;;;33.13;31.61;99538.25;4902327;28;98160;-70
2021/05/16 09:39:30;;;;;;;0.80;0.20;;;;;;;35.99;27.60;99539.56;4902611;28;99048;-70
2021/05/16 09:42:04;;;;;;;1.10;0.22;;;;;;;37.22;26.45;99545.88;4902088;28;98533;-70
2021/05/16 09:44:44;;;;;;;2.35;0.35;;;;;;;35.33;29.64;99537.72;4901789;28;98348;-64
2021/05/16 09:47:19;;;;;;;1.08;0.20;;;;;;;35.46;30.00;99525.66;4895605;28;98027;-64
2021/05/16 09:49:47;;;;;;;2.38;0.13;;;;;;;35.30;29.19;99526.66;4901092;28;99337;-64
2021/05/16 09:52:17;;;;;;;0.90;0.20;;;;;;;34.13;31.69;99519.19;4901416;28;98348;-64
2021/05/16 09:55:12;;;;;;;0.70;0.10;;;;;;;33.84;31.48;99524.13;4902131;28;98628;-64
2021/05/16 09:57:40;;;;;;;0.75;0.20;;;;;;;31.51;35.23;99515.69;4901673;28;98102;-70
2021/05/16 10:00:08;;;;;;;1.25;0.28;;;;;;;30.05;37.87;99508.13;4882516;28;98625;-70
2021/05/16 10:02:34;;;;;;;0.88;0.17;;;;;;;29.89;38.63;99494.13;4879729;28;98873;-70
2021/05/16 10:05:03;;;;;;;0.90;0.20;;;;;;;33.08;32.33;99505.31;4882679;28;109382;-64
2021/05/16 10:07:30;;;;;;;1.65;0.28;;;;;;;36.44;27.09;99513.63;4881408;28;98060;-64
2021/05/16 10:09:57;;;;;;;1.85;0.20;;;;;;;38.05;24.72;99509.78;4881447;28;97962;-64
2021/05/16 10:12:23;;;;;;;0.77;0.20;;;;;;;39.34;23.59;99502.22;4882025;28;98985;-64
2021/05/16 10:15:14;;;;;;;1.13;0.10;;;;;;;36.80;27.61;99500.84;4882643;28;98476;-70
2021/05/16 10:17:48;;;;;;;1.10;0.20;;;;;;;39.24;23.92;99495.94;4866802;28;97905;-71
2021/05/16 10:20:15;;;;;;;0.88;0.20;;;;;;;39.99;23.40;99500.13;4848393;28;98168;-69
2021/05/16 10:22:51;;;;;;;0.93;0.20;;;;;;;41.07;22.07;99500.84;4880482;28;113300;-68
2021/05/16 10:25:25;;;;;;;0.40;0.10;;;;;;;42.21;20.94;99503.09;4886364;28;114091;-61
2021/05/16 10:27:51;;;;;;;0.80;0.10;;;;;;;38.84;25.36;99485.25;4866208;28;100450;-68
2021/05/16 10:30:18;;;;;;;1.23;0.15;;;;;;;36.18;28.80;99492.72;4862562;28;128097;-68
2021/05/16 10:32:48;;;;;;;1.20;0.15;;;;;;;34.52;30.93;99480.75;4862934;28;98687;-61
2021/05/16 10:35:14;;;;;;;0.82;0.20;;;;;;;38.05;25.32;99486.50;4882075;28;97930;-61
2021/05/16 10:37:51;;;;;;;1.10;0.10;;;;;;;36.56;26.90;99478.28;4881005;28;99121;-68
2021/05/16 10:40:21;;;;;;;1.10;0.20;;;;;;;37.11;26.36;99472.56;4880754;28;98221;-61
2021/05/16 10:42:47;;;;;;;0.73;0.15;;;;;;;37.12;26.04;99474.13;4880065;28;98589;-67
2021/05/16 10:45:38;;;;;;;1.40;0.22;;;;;;;36.11;27.42;99474.19;4863832;28;98014;-61
2021/05/16 10:48:16;;;;;;;1.25;0.20;;;;;;;35.40;29.07;99461.81;4848608;28;98053;-69
2021/05/16 10:50:53;;;;;;;1.02;0.30;;;;;;;38.73;23.96;99469.69;4847009;28;98310;-62
2021/05/16 10:53:35;;;;;;;1.35;0.20;;;;;;;39.84;22.95;99474.78;4878524;28;98467;-70
2021/05/16 10:56:10;;;;;;;0.85;0.20;;;;;;;40.77;22.13;99474.88;4864502;28;98553;-62
2021/05/16 10:58:45;;;;;;;0.80;0.17;;;;;;;36.76;27.28;99460.94;4887713;28;97905;-62
2021/05/16 11:01:17;;;;;;;1.00;0.20;;;;;;;38.49;24.82;99464.13;4899173;28;99445;-70
2021/05/16 11:04:01;;;;;;;0.82;0.10;;;;;;;39.99;23.18;99471.91;4881708;28;100395;-70
2021/05/16 11:06:39;;;;;;;0.85;0.20;;;;;;;41.69;21.43;99456.81;4899947;28;97913;-69
2021/05/16 11:09:13;;;;;;;1.42;0.20;;;;;;;42.11;21.11;99451.63;4898066;28;97794;-69
2021/05/16 11:11:49;;;;;;;1.48;0.20;;;;;;;42.70;20.33;99453.63;4881775;28;98879;-70
2021/05/16 11:14:26;;;;;;;0.90;0.20;;;;;;;43.08;20.70;99449.28;4907582;28;99669;-70
2021/05/16 11:17:01;;;;;;;0.98;0.10;;;;;;;42.29;21.05;99439.09;4896587;28;98060;-70
2021/05/16 11:19:30;;;;;;;1.77;0.10;;;;;;;39.44;24.42;99425.53;4901665;28;97999;-61
2021/05/16 11:21:56;;;;;;;3.97;1.13;;;;;;;34.37;20.65;99412.56;4899619;28;98799;-69
2021/05/16 11:24:46;;;;;;;2.75;0.75;;;;;;;35.87;18.42;99412.31;4900254;28;99393;-69
2021/05/16 11:27:28;;;;;;;1.10;0.25;;;;;;;35.53;18.49;99410.53;4898658;28;98998;-61
2021/05/16 11:30:06;;;;;;;0.73;0.20;;;;;;;34.85;18.90;99419.56;4899667;28;97916;-61
2021/05/16 11:32:32;;;;;;;0.90;0.10;;;;;;;31.83;21.50;99417.44;4898453;28;97994;-61
2021/05/16 11:35:15;;;;;;;1.50;0.20;;;;;;;30.30;22.26;99405.72;4861503;28;98345;-60